Time;durP1;ratioP1;P1;durP2;ratioP2;P2;SDS_P1;SDS_P2;PMS_P1;PMS_P2;Temp;Humidity;BMP_temperature;BMP_pressure;BME280_temperature;BME280_humidity;BME280_pressure;Samples;Min_cycle;Max_cycle;Signal;HPM_P1;HPM_P2
2023/01/04 00:01:53;;;;;;;7.80;3.30;;;9.10;99.90;;;;;;5107661;28;20210;-69
2023/01/04 00:04:20;;;;;;;6.83;3.17;;;9.10;99.90;;;;;;5105456;28;20238;-70
2023/01/04 00:06:47;;;;;;;9.47;3.37;;;9.10;99.90;;;;;;5108469;28;20233;-70
2023/01/04 00:09:16;;;;;;;7.37;3.67;;;9.10;99.90;;;;;;5105966;28;20299;-70
2023/01/04 00:11:43;;;;;;;7.70;3.20;;;9.10;99.90;;;;;;5107115;28;20215;-68
2023/01/04 00:14:11;;;;;;;7.63;3.10;;;9.10;99.90;;;;;;5103759;28;20745;-68
2023/01/04 00:16:37;;;;;;;5.83;3.00;;;9.00;99.90;;;;;;5107284;28;20642;-68
2023/01/04 00:19:04;;;;;;;10.10;4.07;;;9.00;99.90;;;;;;5112318;28;20321;-68
2023/01/04 00:21:31;;;;;;;10.60;3.37;;;9.00;99.90;;;;;;5113333;28;20244;-68
2023/01/04 00:23:59;;;;;;;10.37;3.50;;;9.00;99.90;;;;;;5113142;28;20628;-68
2023/01/04 00:26:31;;;;;;;7.37;3.47;;;9.00;99.90;;;;;;5112592;28;20289;-69
2023/01/04 00:29:04;;;;;;;5.43;3.00;;;8.90;99.90;;;;;;5111650;28;20254;-69
2023/01/04 00:31:31;;;;;;;9.30;3.40;;;8.90;99.90;;;;;;5110516;28;20204;-68
2023/01/04 00:34:01;;;;;;;12.03;3.50;;;8.90;99.90;;;;;;5110766;28;21004;-69
2023/01/04 00:36:28;;;;;;;7.47;3.50;;;8.90;99.90;;;;;;5089309;28;20211;-68
2023/01/04 00:39:06;;;;;;;5.97;3.00;;;8.90;99.90;;;;;;5113309;28;20245;-68
2023/01/04 00:41:39;;;;;;;12.77;3.50;;;8.90;99.90;;;;;;5093154;28;20249;-68
2023/01/04 00:44:26;;;;;;;5.20;3.50;;;8.90;99.90;;;;;;5110889;28;20233;-68
2023/01/04 00:46:52;;;;;;;10.60;3.83;;;8.90;99.90;;;;;;5095596;28;20210;-69
2023/01/04 00:49:20;;;;;;;8.30;3.50;;;8.90;99.90;;;;;;5109748;28;20225;-69
2023/01/04 00:51:46;;;;;;;5.97;3.30;;;8.90;99.90;;;;;;5093707;28;21006;-70
2023/01/04 00:54:15;;;;;;;7.97;3.77;;;8.90;99.90;;;;;;5109402;28;20241;-69
2023/01/04 00:56:42;;;;;;;8.83;3.87;;;8.90;99.90;;;;;;5112296;28;20201;-69
2023/01/04 00:59:12;;;;;;;9.93;3.70;;;8.90;99.90;;;;;;5108948;28;20325;-70
2023/01/04 01:01:39;;;;;;;10.27;3.80;;;8.90;99.90;;;;;;5109056;28;20199;-70
2023/01/04 01:04:08;;;;;;;6.87;3.53;;;8.90;99.90;;;;;;5113089;28;20663;-69
2023/01/04 01:06:35;;;;;;;6.83;3.17;;;8.90;99.90;;;;;;5095124;28;20658;-70
2023/01/04 01:09:02;;;;;;;4.97;3.30;;;8.90;99.90;;;;;;5095338;28;20228;-70
2023/01/04 01:11:30;;;;;;;9.87;3.40;;;8.90;99.90;;;;;;5078488;28;20198;-68
2023/01/04 01:13:57;;;;;;;9.50;3.67;;;8.90;99.90;;;;;;5110006;28;20203;-68
2023/01/04 01:16:25;;;;;;;5.63;3.37;;;8.90;99.90;;;;;;5109321;28;20785;-69
2023/01/04 01:19:12;;;;;;;6.77;3.70;;;8.90;99.90;;;;;;5112826;28;20232;-69
2023/01/04 01:21:39;;;;;;;6.07;3.57;;;8.90;99.90;;;;;;5110993;28;20743;-69
2023/01/04 01:24:08;;;;;;;8.03;3.80;;;8.90;99.90;;;;;;5110974;28;20222;-70
2023/01/04 01:26:35;;;;;;;7.93;3.67;;;8.90;99.90;;;;;;5112005;28;20478;-69
2023/01/04 01:29:02;;;;;;;6.43;3.17;;;8.90;99.90;;;;;;5110641;28;20202;-69
2023/01/04 01:31:29;;;;;;;7.77;2.93;;;8.90;99.90;;;;;;5111113;28;20199;-69
2023/01/04 01:33:56;;;;;;;6.97;3.40;;;8.90;99.90;;;;;;5105142;28;20219;-69
2023/01/04 01:36:25;;;;;;;5.33;2.60;;;9.00;99.90;;;;;;5111796;28;20238;-68
2023/01/04 01:38:52;;;;;;;5.60;2.93;;;9.00;99.90;;;;;;5110945;28;20722;-69
2023/01/04 01:41:27;;;;;;;7.03;3.30;;;9.00;99.90;;;;;;5107849;28;20660;-69
2023/01/04 01:43:53;;;;;;;8.53;3.00;;;9.00;99.90;;;;;;5112394;28;20232;-69
2023/01/04 01:46:27;;;;;;;5.93;3.13;;;9.00;99.90;;;;;;5108577;28;21018;-69
2023/01/04 01:49:16;;;;;;;5.27;2.70;;;9.00;99.90;;;;;;5108880;28;20326;-70
2023/01/04 01:51:43;;;;;;;8.67;3.40;;;9.00;99.90;;;;;;5108897;28;20297;-69
2023/01/04 01:54:15;;;;;;;7.03;2.50;;;9.10;99.90;;;;;;5089542;28;20210;-68
2023/01/04 01:56:44;;;;;;;4.63;2.70;;;9.10;99.90;;;;;;5108539;28;20635;-68
2023/01/04 01:59:13;;;;;;;4.57;2.53;;;9.10;99.90;;;;;;5109016;28;20215;-68
2023/01/04 02:01:40;;;;;;;2.50;2.30;;;9.10;99.90;;;;;;5094495;28;20207;-68
2023/01/04 02:04:08;;;;;;;4.20;2.60;;;9.20;99.90;;;;;;5092286;28;20210;-69
2023/01/04 02:06:42;;;;;;;7.47;2.93;;;9.10;99.90;;;;;;5106962;28;20628;-68
2023/01/04 02:09:11;;;;;;;4.77;2.40;;;9.20;99.90;;;;;;5105082;28;20219;-70
2023/01/04 02:11:38;;;;;;;3.57;2.50;;;9.20;99.90;;;;;;5111620;28;20203;-68
2023/01/04 02:16:55;;;;;;;4.13;2.90;;;9.20;99.90;;;;;;5111832;28;20245;-69
2023/01/04 02:19:40;;;;;;;4.83;3.20;;;9.20;99.90;;;;;;5109566;28;20261;-69
2023/01/04 02:22:21;;;;;;;4.40;2.87;;;9.30;99.90;;;;;;5104570;28;20254;-68
2023/01/04 02:25:06;;;;;;;3.50;3.20;;;9.30;99.90;;;;;;5110186;28;20699;-68
2023/01/04 02:27:41;;;;;;;7.77;3.50;;;9.30;99.90;;;;;;5111338;28;20194;-68
2023/01/04 02:30:30;;;;;;;5.60;3.67;;;9.30;99.90;;;;;;5109556;28;20659;-69
2023/01/04 02:33:15;;;;;;;4.33;3.93;;;9.30;99.90;;;;;;5110359;28;20241;-68
2023/01/04 02:36:01;;;;;;;7.30;3.47;;;9.30;99.90;;;;;;5110118;28;20285;-69
2023/01/04 02:38:46;;;;;;;4.90;3.27;;;9.30;99.90;;;;;;5106263;28;20301;-68
2023/01/04 02:41:33;;;;;;;5.47;3.43;;;9.40;99.90;;;;;;5109505;28;20229;-69
2023/01/04 02:46:52;;;;;;;5.20;3.10;;;9.40;99.90;;;;;;5108879;28;20279;-69
2023/01/04 02:52:04;;;;;;;4.97;3.20;;;9.50;99.90;;;;;;5108847;28;20210;-69
2023/01/04 02:54:32;;;;;;;9.07;3.47;;;9.60;99.90;;;;;;5110347;28;20195;-69
2023/01/04 02:57:13;;;;;;;4.23;2.87;;;9.60;99.90;;;;;;5111212;28;20216;-69
2023/01/04 03:00:24;;;;;;;5.07;3.47;;;9.60;99.90;;;;;;5111248;28;20284;-69
2023/01/04 03:06:31;;;;;;;3.10;2.80;;;9.70;99.90;;;;;;5106449;28;20203;-68
2023/01/04 03:09:04;;;;;;;3.57;2.93;;;9.70;99.90;;;;;;5109950;28;20299;-69
2023/01/04 03:14:46;;;;;;;4.23;3.13;;;9.80;99.90;;;;;;5108273;28;20298;-69
2023/01/04 03:17:16;;;;;;;3.97;3.10;;;9.80;99.90;;;;;;5106449;28;20297;-69
2023/01/04 03:19:50;;;;;;;5.53;3.73;;;9.80;99.90;;;;;;5107495;28;20322;-69
2023/01/04 03:36:45;;;;;;;5.10;4.27;;;9.90;99.90;;;;;;5109119;28;20343;-69
2023/01/04 03:49:13;;;;;;;5.87;4.90;;;10.00;99.90;;;;;;5007668;28;20223;-69
2023/01/04 03:51:41;;;;;;;6.13;5.00;;;10.00;99.90;;;;;;5083317;28;20720;-69
2023/01/04 03:54:17;;;;;;;6.03;5.00;;;10.00;99.90;;;;;;5106044;28;20298;-69
2023/01/04 03:56:47;;;;;;;7.03;5.57;;;10.00;99.90;;;;;;5110366;28;20221;-70
2023/01/04 03:59:16;;;;;;;6.17;5.27;;;10.10;99.90;;;;;;5106384;28;20226;-69
2023/01/04 04:01:43;;;;;;;6.33;5.00;;;10.10;99.90;;;;;;5110032;28;21229;-69
2023/01/04 04:09:41;;;;;;;6.83;5.87;;;10.20;99.90;;;;;;5107949;28;20831;-69
2023/01/04 04:12:08;;;;;;;5.83;5.13;;;10.20;99.90;;;;;;5091625;28;20221;-69
2023/01/04 04:14:35;;;;;;;8.80;6.70;;;10.30;99.90;;;;;;5110531;28;20671;-69
2023/01/04 04:17:02;;;;;;;10.10;6.33;;;10.30;99.90;;;;;;5106161;28;20237;-69
2023/01/04 04:19:29;;;;;;;8.93;7.27;;;10.30;99.90;;;;;;5090315;28;20272;-68
2023/01/04 04:21:55;;;;;;;9.17;6.83;;;10.30;99.90;;;;;;5108828;28;20221;-69
2023/01/04 04:24:24;;;;;;;10.03;7.50;;;10.30;99.90;;;;;;5105414;28;20285;-69
2023/01/04 04:26:55;;;;;;;9.97;6.93;;;10.40;99.90;;;;;;5104750;28;20616;-69
2023/01/04 04:29:23;;;;;;;8.20;7.13;;;10.40;99.90;;;;;;5107793;28;20281;-68
2023/01/04 04:31:50;;;;;;;9.43;7.70;;;10.40;99.90;;;;;;5107410;28;20207;-69
2023/01/04 04:34:17;;;;;;;10.13;7.57;;;10.40;99.90;;;;;;5108204;28;20211;-69
2023/01/04 04:36:44;;;;;;;10.10;6.93;;;10.40;99.90;;;;;;5107661;28;20229;-69
2023/01/04 04:39:11;;;;;;;9.23;7.63;;;10.50;99.90;;;;;;5110029;28;20750;-69
2023/01/04 04:41:40;;;;;;;10.20;7.77;;;10.50;99.90;;;;;;5107378;28;20667;-69
2023/01/04 04:44:16;;;;;;;11.17;7.70;;;10.50;99.90;;;;;;5109182;28;20234;-69
2023/01/04 04:46:44;;;;;;;9.47;7.60;;;10.60;99.90;;;;;;5102713;28;20289;-68
2023/01/04 04:49:15;;;;;;;9.97;6.97;;;10.60;99.90;;;;;;5108748;28;20283;-69
2023/01/04 04:51:43;;;;;;;8.87;6.73;;;10.70;99.90;;;;;;5090226;28;20215;-69
2023/01/04 04:54:14;;;;;;;8.07;6.27;;;10.70;99.90;;;;;;5107746;28;20670;-69
2023/01/04 04:56:41;;;;;;;8.53;6.83;;;10.80;99.90;;;;;;5103372;28;20751;-69
2023/01/04 04:59:08;;;;;;;7.93;6.63;;;10.80;99.90;;;;;;5107222;28;20302;-69
2023/01/04 05:01:35;;;;;;;7.43;6.63;;;10.90;99.90;;;;;;5106142;28;20207;-69
2023/01/04 05:04:02;;;;;;;8.80;7.20;;;10.90;99.90;;;;;;5110583;28;20203;-69
2023/01/04 05:06:29;;;;;;;8.37;6.73;;;10.90;99.90;;;;;;5109091;28;20641;-69
2023/01/04 05:08:56;;;;;;;8.63;6.70;;;10.90;99.90;;;;;;5107486;28;20776;-69
2023/01/04 05:14:09;;;;;;;8.80;6.70;;;11.00;99.90;;;;;;5091089;28;20264;-69
2023/01/04 05:16:36;;;;;;;7.17;6.30;;;11.00;99.90;;;;;;5112699;28;20570;-69
2023/01/04 05:19:03;;;;;;;7.67;6.40;;;11.10;99.90;;;;;;5111110;28;20242;-69
2023/01/04 05:21:30;;;;;;;8.47;6.60;;;11.00;99.90;;;;;;5112560;28;20207;-68
2023/01/04 05:23:56;;;;;;;8.83;6.67;;;11.10;99.90;;;;;;5109088;28;20663;-68
2023/01/04 05:26:23;;;;;;;6.93;6.23;;;11.10;99.90;;;;;;5111294;28;20203;-69
2023/01/04 05:28:50;;;;;;;10.30;6.77;;;11.00;99.90;;;;;;5112240;28;20207;-69
2023/01/04 05:31:20;;;;;;;8.73;6.73;;;11.00;99.90;;;;;;5106131;28;20231;-69
2023/01/04 05:33:47;;;;;;;9.40;6.87;;;11.00;99.90;;;;;;5094020;28;20206;-69
2023/01/04 05:36:14;;;;;;;8.10;6.70;;;11.10;99.90;;;;;;5112457;28;20286;-69
2023/01/04 05:38:40;;;;;;;8.87;6.23;;;11.10;99.90;;;;;;5110432;28;20285;-69
2023/01/04 05:42:23;;;;;;;6.90;6.10;;;11.00;99.90;;;;;;5107647;28;20302;-68
2023/01/04 05:43:54;;;;;;;7.57;5.93;;;11.10;99.90;;;;;;5112036;28;20596;-69
2023/01/04 05:46:21;;;;;;;10.17;6.20;;;11.00;99.90;;;;;;5110676;28;20248;-69
2023/01/04 05:48:48;;;;;;;9.40;5.93;;;11.00;99.90;;;;;;5104413;28;20307;-69
2023/01/04 05:51:15;;;;;;;7.87;6.67;;;11.00;99.90;;;;;;5112178;28;20294;-69
2023/01/04 05:53:41;;;;;;;7.83;6.10;;;11.00;99.90;;;;;;5110999;28;20561;-69
2023/01/04 05:56:08;;;;;;;10.17;6.20;;;11.00;99.90;;;;;;5106283;28;20203;-69
2023/01/04 05:58:35;;;;;;;7.60;5.60;;;11.00;99.90;;;;;;5107470;28;20732;-69
2023/01/04 06:01:02;;;;;;;6.73;5.10;;;11.00;99.90;;;;;;5104825;27;20223;-69
2023/01/04 06:03:30;;;;;;;6.10;5.37;;;11.00;99.90;;;;;;5106369;28;20223;-70
2023/01/04 06:05:57;;;;;;;7.47;5.43;;;11.00;99.90;;;;;;5109386;28;20241;-68
2023/01/04 06:08:23;;;;;;;7.80;5.60;;;11.10;99.90;;;;;;5107797;28;20331;-69
2023/01/04 06:10:53;;;;;;;7.30;5.10;;;11.10;99.90;;;;;;5109780;28;20212;-69
2023/01/04 06:13:20;;;;;;;6.77;4.87;;;11.10;99.90;;;;;;5089408;28;20200;-68
2023/01/04 06:15:47;;;;;;;6.73;5.17;;;11.10;99.90;;;;;;5106546;28;20317;-69
2023/01/04 06:18:14;;;;;;;8.77;5.73;;;11.10;99.90;;;;;;5107961;28;20199;-69
2023/01/04 06:20:42;;;;;;;5.80;5.10;;;11.10;99.90;;;;;;5110158;28;20762;-69
2023/01/04 06:23:09;;;;;;;6.33;5.17;;;11.10;99.90;;;;;;5091497;28;20199;-70
2023/01/04 06:25:36;;;;;;;6.80;5.20;;;11.10;99.90;;;;;;5091705;28;20643;-69
2023/01/04 06:28:03;;;;;;;6.70;4.93;;;11.10;99.90;;;;;;5110411;28;20230;-69
2023/01/04 06:30:30;;;;;;;10.17;5.27;;;11.10;99.90;;;;;;5089047;28;20225;-69
2023/01/04 06:32:56;;;;;;;7.57;4.90;;;11.10;99.90;;;;;;5103577;28;20775;-70
2023/01/04 06:35:23;;;;;;;7.10;4.20;;;11.20;99.90;;;;;;5109093;28;20203;-68
2023/01/04 06:37:50;;;;;;;6.60;4.50;;;11.20;99.90;;;;;;5107591;28;20325;-70
2023/01/04 06:40:16;;;;;;;5.37;4.30;;;11.20;99.90;;;;;;5105070;28;20697;-70
2023/01/04 06:42:43;;;;;;;5.17;3.90;;;11.20;99.90;;;;;;5108761;28;20245;-68
2023/01/04 06:45:11;;;;;;;5.60;4.07;;;11.10;99.90;;;;;;5104424;28;20214;-71
2023/01/04 06:47:39;;;;;;;4.63;3.70;;;11.20;99.90;;;;;;5107350;28;20753;-68
2023/01/04 06:50:07;;;;;;;5.23;3.53;;;11.30;99.90;;;;;;5092562;28;20286;-70
2023/01/04 06:52:34;;;;;;;4.43;3.90;;;11.20;99.90;;;;;;5108643;28;20210;-68
2023/01/04 06:55:00;;;;;;;8.10;4.20;;;11.20;99.90;;;;;;5105053;28;20218;-68
2023/01/04 06:57:28;;;;;;;6.63;3.90;;;11.20;99.90;;;;;;5101351;28;20245;-68
2023/01/04 06:59:55;;;;;;;4.90;4.30;;;11.30;99.90;;;;;;5101335;28;20219;-69
2023/01/04 07:02:21;;;;;;;6.33;4.83;;;11.30;99.90;;;;;;5103902;28;20294;-70
2023/01/04 07:04:48;;;;;;;5.13;4.40;;;11.30;99.90;;;;;;5099864;28;20286;-69
2023/01/04 07:07:15;;;;;;;6.60;4.80;;;11.30;99.90;;;;;;5107226;28;20242;-70
2023/01/04 07:09:42;;;;;;;6.00;5.23;;;11.40;99.90;;;;;;5104634;28;20683;-68
2023/01/04 07:12:09;;;;;;;7.50;6.00;;;11.40;99.90;;;;;;5109466;28;20234;-69
2023/01/04 07:14:35;;;;;;;6.70;5.60;;;11.40;99.90;;;;;;5107368;28;20195;-70
2023/01/04 07:17:02;;;;;;;7.50;5.57;;;11.40;99.90;;;;;;5109458;28;20716;-69
2023/01/04 07:19:29;;;;;;;8.13;6.53;;;11.40;99.90;;;;;;5105574;28;21040;-69
2023/01/04 07:21:57;;;;;;;7.77;5.70;;;11.60;99.90;;;;;;5102484;28;20218;-69
2023/01/04 07:24:25;;;;;;;8.37;5.37;;;11.60;99.90;;;;;;5111209;28;20210;-70
2023/01/04 07:26:57;;;;;;;9.90;5.63;;;11.50;99.90;;;;;;5108544;28;20674;-69
2023/01/04 07:29:24;;;;;;;6.70;5.33;;;11.50;99.90;;;;;;5093038;28;20294;-69
2023/01/04 07:31:52;;;;;;;10.40;6.40;;;11.50;99.90;;;;;;5092178;28;20274;-69
2023/01/04 07:34:22;;;;;;;13.03;6.30;;;11.50;99.90;;;;;;5110683;28;20214;-70
2023/01/04 07:36:49;;;;;;;11.10;6.93;;;11.40;99.90;;;;;;5110600;28;20243;-69
2023/01/04 07:39:17;;;;;;;9.03;6.33;;;11.40;99.90;;;;;;5110575;28;20297;-69
2023/01/04 07:41:44;;;;;;;8.13;6.63;;;11.40;99.90;;;;;;5110372;28;20752;-69
2023/01/04 07:44:12;;;;;;;9.10;6.67;;;11.50;99.90;;;;;;5110362;28;20227;-69
2023/01/04 07:46:40;;;;;;;9.07;6.53;;;11.60;99.90;;;;;;5110492;28;20268;-69
2023/01/04 07:49:10;;;;;;;9.77;6.87;;;11.60;99.90;;;;;;5110603;28;20229;-69
2023/01/04 07:51:44;;;;;;;12.40;7.37;;;11.60;99.90;;;;;;5110601;28;20289;-69
2023/01/04 07:54:11;;;;;;;11.23;7.47;;;11.50;99.90;;;;;;5110355;28;20302;-69
2023/01/04 07:56:37;;;;;;;13.70;7.90;;;11.50;99.90;;;;;;5110061;28;20241;-69
2023/01/04 07:59:06;;;;;;;9.97;7.80;;;11.50;99.90;;;;;;5110317;28;20220;-69
2023/01/04 08:01:37;;;;;;;12.37;7.40;;;11.60;99.90;;;;;;5109961;28;20453;-69
2023/01/04 08:04:05;;;;;;;9.63;7.47;;;11.50;99.90;;;;;;5110155;28;20211;-69
2023/01/04 08:06:33;;;;;;;11.17;7.57;;;11.50;99.90;;;;;;5110285;28;20218;-69
2023/01/04 08:09:01;;;;;;;12.20;7.73;;;11.50;99.90;;;;;;5110295;28;20199;-70
2023/01/04 08:11:28;;;;;;;11.80;7.77;;;11.50;99.90;;;;;;5110389;28;20252;-70
2023/01/04 08:13:54;;;;;;;10.17;6.97;;;11.60;99.90;;;;;;5109940;28;20217;-70
2023/01/04 08:16:26;;;;;;;11.53;7.03;;;11.50;99.90;;;;;;5109982;28;20385;-70
2023/01/04 08:18:55;;;;;;;8.73;5.87;;;11.60;99.90;;;;;;5109737;28;20241;-70
2023/01/04 08:21:22;;;;;;;10.63;6.63;;;11.50;99.90;;;;;;5110362;28;20229;-70
2023/01/04 08:23:50;;;;;;;9.97;5.60;;;11.50;99.90;;;;;;5109782;28;20291;-70
2023/01/04 08:26:17;;;;;;;7.30;5.17;;;11.50;99.90;;;;;;5109896;28;20247;-69
2023/01/04 08:28:44;;;;;;;7.50;5.07;;;11.50;99.90;;;;;;5104372;28;20602;-69
2023/01/04 08:31:15;;;;;;;7.40;5.77;;;11.50;99.90;;;;;;5108216;28;20269;-69
2023/01/04 08:33:42;;;;;;;6.40;5.70;;;11.60;99.90;;;;;;5108015;28;20281;-69
2023/01/04 08:36:10;;;;;;;8.50;5.57;;;11.50;99.90;;;;;;5106494;28;20237;-70
2023/01/04 08:38:37;;;;;;;9.90;5.97;;;11.60;99.90;;;;;;5106383;28;20286;-70
2023/01/04 08:41:24;;;;;;;6.93;5.57;;;11.60;99.90;;;;;;5109871;28;20227;-68
2023/01/04 08:44:11;;;;;;;7.33;5.50;;;11.60;99.90;;;;;;5113616;28;20231;-69
2023/01/04 08:46:38;;;;;;;6.57;4.93;;;11.60;99.90;;;;;;5107162;28;20252;-69
2023/01/04 08:49:05;;;;;;;6.77;5.73;;;11.70;99.90;;;;;;5088629;28;20203;-70
2023/01/04 08:51:33;;;;;;;5.53;4.37;;;11.60;99.90;;;;;;5111148;28;20290;-69
2023/01/04 08:53:59;;;;;;;7.23;4.80;;;11.60;99.90;;;;;;5108290;28;20290;-69
2023/01/04 08:56:26;;;;;;;7.00;5.20;;;11.60;99.90;;;;;;5111302;28;20203;-69
2023/01/04 08:58:53;;;;;;;4.73;4.00;;;11.60;99.90;;;;;;5092989;28;20294;-69
2023/01/04 09:01:20;;;;;;;5.43;4.70;;;11.60;99.90;;;;;;5112893;28;20237;-69
2023/01/04 09:03:47;;;;;;;6.27;5.23;;;11.70;99.90;;;;;;5113133;28;20241;-70
2023/01/04 09:06:15;;;;;;;6.33;4.23;;;11.60;99.90;;;;;;5112546;28;20268;-70
2023/01/04 09:08:43;;;;;;;7.10;4.53;;;11.70;99.90;;;;;;5110025;28;20291;-70
2023/01/04 09:11:15;;;;;;;6.13;4.80;;;11.70;99.90;;;;;;5110946;28;20203;-69
2023/01/04 09:13:43;;;;;;;5.13;4.53;;;11.70;99.90;;;;;;5112728;28;20739;-69
2023/01/04 09:16:15;;;;;;;5.73;4.10;;;11.70;99.90;;;;;;5113338;28;20203;-69
2023/01/04 09:18:43;;;;;;;3.93;3.40;;;11.80;99.90;;;;;;5094683;28;20210;-70
2023/01/04 09:21:13;;;;;;;4.33;3.40;;;11.80;99.90;;;;;;5089693;28;20229;-70
2023/01/04 09:23:40;;;;;;;6.47;3.20;;;11.80;99.90;;;;;;5113117;28;20227;-70
2023/01/04 09:26:10;;;;;;;3.90;2.90;;;11.80;99.90;;;;;;5111841;28;20253;-70
2023/01/04 09:28:38;;;;;;;5.80;3.10;;;11.80;99.90;;;;;;5111433;28;20349;-69
2023/01/04 09:31:14;;;;;;;3.37;3.07;;;11.80;99.90;;;;;;5092394;28;20302;-70
2023/01/04 09:33:42;;;;;;;3.43;3.00;;;11.90;99.90;;;;;;5094378;28;20248;-70
2023/01/04 09:36:29;;;;;;;3.57;3.17;;;11.90;99.90;;;;;;5110160;28;20199;-70
2023/01/04 09:38:55;;;;;;;3.07;2.57;;;11.90;99.90;;;;;;5108508;28;20262;-70
2023/01/04 09:41:27;;;;;;;3.57;2.90;;;12.00;99.90;;;;;;5108396;28;20279;-70
2023/01/04 09:44:12;;;;;;;2.93;2.63;;;12.00;99.90;;;;;;5106808;28;20277;-70
2023/01/04 09:46:57;;;;;;;3.57;2.40;;;12.00;99.90;;;;;;5111226;28;20214;-70
2023/01/04 09:49:53;;;;;;;3.00;2.60;;;12.00;99.90;;;;;;5088496;28;20340;-69
2023/01/04 09:52:35;;;;;;;2.43;2.23;;;12.00;99.90;;;;;;5084244;28;20686;-70
2023/01/04 09:55:08;;;;;;;2.67;2.23;;;12.00;99.90;;;;;;5110810;28;20293;-70
2023/01/04 09:58:01;;;;;;;2.70;2.30;;;12.10;99.90;;;;;;5110550;28;20207;-69
2023/01/04 10:00:32;;;;;;;2.63;2.30;;;12.10;99.90;;;;;;5107908;28;20741;-70
2023/01/04 10:03:09;;;;;;;2.80;2.50;;;12.10;99.90;;;;;;5110199;28;20242;-70
2023/01/04 10:05:36;;;;;;;4.03;2.53;;;12.10;99.90;;;;;;5109921;28;20207;-70
2023/01/04 10:08:07;;;;;;;2.93;2.43;;;12.10;99.90;;;;;;5091990;28;20282;-70
2023/01/04 10:10:40;;;;;;;3.57;2.30;;;12.10;99.90;;;;;;5094351;28;20230;-70
2023/01/04 10:13:29;;;;;;;2.40;2.20;;;12.20;99.90;;;;;;5106386;28;20218;-70
2023/01/04 10:16:03;;;;;;;3.50;2.10;;;12.20;99.90;;;;;;5105448;28;20191;-71
2023/01/04 10:18:46;;;;;;;2.40;2.20;;;12.10;99.90;;;;;;5109914;28;20599;-70
2023/01/04 10:21:50;;;;;;;3.97;2.10;;;12.20;99.90;;;;;;5109043;28;20238;-70
2023/01/04 10:24:28;;;;;;;3.00;2.27;;;12.20;99.90;;;;;;5109256;28;20203;-70
2023/01/04 10:27:04;;;;;;;3.80;1.97;;;12.20;99.90;;;;;;5111685;28;20310;-69
2023/01/04 10:29:39;;;;;;;3.07;2.53;;;12.20;99.90;;;;;;5108355;28;20662;-69
2023/01/04 10:32:23;;;;;;;3.13;2.10;;;12.20;99.90;;;;;;5108942;28;20205;-69
2023/01/04 10:34:52;;;;;;;2.33;2.10;;;12.20;99.90;;;;;;5110545;28;20594;-69
2023/01/04 10:37:26;;;;;;;4.23;2.40;;;12.20;99.90;;;;;;5092607;28;20266;-69
2023/01/04 10:39:55;;;;;;;2.37;2.17;;;12.20;99.90;;;;;;5092617;28;20266;-69
2023/01/04 10:42:27;;;;;;;3.20;2.30;;;12.30;99.90;;;;;;5109761;28;20227;-69
2023/01/04 10:45:27;;;;;;;2.67;2.47;;;12.30;99.90;;;;;;5109727;28;20225;-69
2023/01/04 10:48:23;;;;;;;3.93;2.30;;;12.40;99.90;;;;;;5110290;28;20422;-69
2023/01/04 10:50:56;;;;;;;2.67;2.40;;;12.40;99.90;;;;;;5110669;28;20281;-68
2023/01/04 10:53:35;;;;;;;2.80;2.10;;;12.30;99.90;;;;;;5108420;28;20278;-68
2023/01/04 10:56:07;;;;;;;3.00;2.17;;;12.30;99.90;;;;;;5106834;28;20222;-68
2023/01/04 10:59:17;;;;;;;2.60;2.40;;;12.30;99.90;;;;;;5110772;28;20250;-68
2023/01/04 11:01:50;;;;;;;2.93;2.40;;;12.40;99.90;;;;;;5109989;28;20226;-70
2023/01/04 11:04:38;;;;;;;4.87;2.80;;;12.30;99.90;;;;;;5092777;28;20221;-69
2023/01/04 11:07:15;;;;;;;4.27;2.40;;;12.40;99.90;;;;;;5106125;28;20222;-68
2023/01/04 11:09:45;;;;;;;2.23;1.90;;;12.40;99.90;;;;;;5106170;28;20206;-68
2023/01/04 11:12:15;;;;;;;3.53;2.20;;;12.40;99.90;;;;;;5106730;28;20199;-67
2023/01/04 11:14:42;;;;;;;2.53;2.00;;;12.40;99.90;;;;;;5108589;28;20280;-67
2023/01/04 11:17:10;;;;;;;2.60;2.27;;;12.40;99.90;;;;;;5091594;28;20314;-70
2023/01/04 11:19:40;;;;;;;3.93;1.97;;;12.40;99.90;;;;;;5099577;28;20213;-70
2023/01/04 11:22:35;;;;;;;2.40;2.00;;;12.40;99.90;;;;;;5103283;28;20233;-68
2023/01/04 11:25:06;;;;;;;3.03;1.90;;;12.40;99.90;;;;;;5109453;28;20214;-70
2023/01/04 11:28:17;;;;;;;2.33;2.07;;;12.40;99.90;;;;;;5093249;28;20203;-70
2023/01/04 11:31:02;;;;;;;3.63;1.80;;;12.50;99.90;;;;;;5110225;28;20203;-69
2023/01/04 11:33:29;;;;;;;3.07;2.10;;;12.50;99.90;;;;;;5110653;28;20238;-69
2023/01/04 11:35:58;;;;;;;2.47;2.23;;;12.50;99.90;;;;;;5106726;28;20203;-68
2023/01/04 11:38:27;;;;;;;2.57;1.90;;;12.50;99.90;;;;;;5088532;28;20203;-67
2023/01/04 11:41:00;;;;;;;2.70;1.97;;;12.50;99.90;;;;;;5110887;28;20615;-69
2023/01/04 11:43:38;;;;;;;1.80;1.70;;;12.50;99.90;;;;;;5107252;28;20231;-69
2023/01/04 11:46:16;;;;;;;1.70;1.60;;;12.50;99.90;;;;;;5110909;28;20686;-68
2023/01/04 11:48:44;;;;;;;1.67;1.33;;;12.50;99.90;;;;;;5110729;28;20287;-69
2023/01/04 11:51:25;;;;;;;3.60;1.87;;;12.50;99.90;;;;;;5109550;28;20226;-69
2023/01/04 11:54:02;;;;;;;2.30;2.10;;;12.60;99.90;;;;;;5104653;28;20301;-70
2023/01/04 11:56:31;;;;;;;3.60;1.63;;;12.50;99.90;;;;;;5110662;28;20253;-69
2023/01/04 11:59:12;;;;;;;2.63;1.80;;;12.50;99.90;;;;;;5105427;28;20580;-69
2023/01/04 12:01:46;;;;;;;3.07;1.90;;;12.50;99.90;;;;;;5102266;28;20711;-69
2023/01/04 12:04:18;;;;;;;2.40;1.90;;;12.50;99.90;;;;;;5110376;28;20203;-70
2023/01/04 12:07:10;;;;;;;3.33;1.77;;;12.50;99.90;;;;;;5109149;28;20253;-69
2023/01/04 12:09:37;;;;;;;2.70;2.10;;;12.50;99.90;;;;;;5106502;28;20199;-69
2023/01/04 12:12:04;;;;;;;4.50;2.27;;;12.50;99.90;;;;;;5105714;28;20200;-68
2023/01/04 12:14:39;;;;;;;4.37;2.87;;;12.50;99.90;;;;;;5107080;28;20251;-67
2023/01/04 12:17:29;;;;;;;5.77;2.60;;;12.50;99.90;;;;;;5108968;28;20386;-68
2023/01/04 12:20:00;;;;;;;3.50;2.50;;;12.50;99.90;;;;;;5104246;28;20196;-68
2023/01/04 12:22:34;;;;;;;5.63;3.17;;;12.50;99.90;;;;;;5109013;28;20237;-68
2023/01/04 12:25:06;;;;;;;6.67;3.07;;;12.50;99.90;;;;;;5108153;28;20249;-68
2023/01/04 12:27:35;;;;;;;8.63;3.43;;;12.50;99.90;;;;;;5110249;28;20257;-68
2023/01/04 12:30:06;;;;;;;7.23;3.13;;;12.50;99.90;;;;;;5091015;28;20294;-69
2023/01/04 12:32:33;;;;;;;6.90;3.73;;;12.50;99.90;;;;;;5108952;28;20219;-69
2023/01/04 12:35:00;;;;;;;8.57;3.53;;;12.50;99.90;;;;;;5109607;28;20283;-69
2023/01/04 12:37:47;;;;;;;10.03;3.90;;;12.60;99.90;;;;;;5110409;28;20246;-68
2023/01/04 12:40:48;;;;;;;8.50;4.00;;;12.60;99.90;;;;;;5106627;28;20199;-68
2023/01/04 12:43:15;;;;;;;11.77;4.00;;;12.60;99.90;;;;;;5105826;28;20248;-68
2023/01/04 12:45:43;;;;;;;6.77;3.37;;;12.60;99.90;;;;;;5108351;28;20211;-68
2023/01/04 12:51:17;;;;;;;8.23;4.10;;;12.60;99.90;;;;;;5108733;28;20290;-69
2023/01/04 12:54:04;;;;;;;9.50;3.80;;;12.60;99.90;;;;;;5108720;28;20214;-69
2023/01/04 12:57:15;;;;;;;10.17;4.33;;;12.60;99.90;;;;;;5108629;28;20199;-69
2023/01/04 13:00:01;;;;;;;8.27;3.90;;;12.60;99.90;;;;;;5088820;28;20230;-69
2023/01/04 13:02:36;;;;;;;9.77;3.93;;;12.60;99.90;;;;;;5110246;28;20219;-69
2023/01/04 13:05:30;;;;;;;8.87;3.50;;;12.60;99.90;;;;;;5109855;28;20199;-69
2023/01/04 13:08:18;;;;;;;8.20;3.60;;;12.70;99.90;;;;;;5105702;28;20206;-69
2023/01/04 13:10:54;;;;;;;11.00;3.70;;;12.70;99.90;;;;;;5107468;28;20191;-68
2023/01/04 13:13:56;;;;;;;10.23;3.73;;;12.70;99.90;;;;;;5088714;28;20639;-69
2023/01/04 13:16:40;;;;;;;9.73;3.50;;;12.70;99.90;;;;;;5109896;28;20222;-69
2023/01/04 13:19:23;;;;;;;9.27;3.27;;;12.80;99.90;;;;;;5106566;28;20210;-69
2023/01/04 13:21:51;;;;;;;12.03;4.07;;;12.80;99.90;;;;;;5109190;28;20227;-69
2023/01/04 13:24:23;;;;;;;12.27;3.33;;;12.80;99.90;;;;;;5091512;28;20608;-69
2023/01/04 13:26:51;;;;;;;8.40;3.33;;;12.80;99.90;;;;;;5112384;28;20203;-69
2023/01/04 13:29:20;;;;;;;16.20;3.80;;;12.90;99.90;;;;;;5095618;28;20211;-69
2023/01/04 13:31:46;;;;;;;8.83;3.40;;;12.90;99.90;;;;;;5091336;28;20574;-69
2023/01/04 13:34:20;;;;;;;11.13;2.90;;;12.90;99.90;;;;;;5092092;28;20577;-68
2023/01/04 13:37:10;;;;;;;8.47;3.00;;;12.90;99.90;;;;;;5113607;28;20210;-68
2023/01/04 13:39:38;;;;;;;12.10;3.87;;;13.00;99.90;;;;;;5111895;28;20561;-68
2023/01/04 13:42:12;;;;;;;14.10;3.73;;;13.00;99.90;;;;;;5109265;28;20246;-68
2023/01/04 13:44:58;;;;;;;8.67;2.83;;;13.00;99.90;;;;;;5094903;28;20314;-68
2023/01/04 13:47:48;;;;;;;13.20;2.63;;;13.00;99.90;;;;;;5110045;28;20205;-69
2023/01/04 13:50:26;;;;;;;13.30;3.67;;;13.00;99.90;;;;;;5110653;28;20195;-68
2023/01/04 13:52:53;;;;;;;12.30;3.13;;;13.00;99.90;;;;;;5112776;28;20240;-68
2023/01/04 13:55:36;;;;;;;13.03;3.20;;;13.00;99.90;;;;;;5111338;28;20202;-69
2023/01/04 13:58:16;;;;;;;10.57;2.80;;;13.00;99.90;;;;;;5108731;28;20267;-69
2023/01/04 14:00:55;;;;;;;11.53;2.77;;;13.00;99.90;;;;;;5109522;28;20238;-68
2023/01/04 14:03:46;;;;;;;15.10;3.87;;;13.00;99.90;;;;;;5103901;28;20279;-68
2023/01/04 14:06:20;;;;;;;7.67;2.60;;;13.00;99.90;;;;;;5107937;28;20663;-68